createdAt,value
2019-02-19T16:40:12.214Z,1020.5
2019-02-19T16:41:12.198Z,1020.5
2019-02-19T16:42:12.205Z,1020.5
2019-02-19T16:43:12.237Z,1020.5
2019-02-19T16:44:12.215Z,1020.5
2019-02-19T16:45:12.280Z,1020.5
2019-02-19T16:46:12.234Z,1020.7
2019-02-19T16:47:12.326Z,1020.6
2019-02-19T16:48:12.369Z,1020.6
2019-02-19T16:49:12.292Z,1020.6
2019-02-19T16:50:12.571Z,1020.7
2019-02-19T16:51:12.279Z,1020.6
2019-02-19T16:52:12.323Z,1020.7
2019-02-19T16:53:12.309Z,1020.6
2019-02-19T16:54:12.365Z,1020.6
2019-02-19T16:55:12.329Z,1020.6
2019-02-19T16:56:12.465Z,1020.6
2019-02-19T16:57:12.828Z,1020.6
2019-02-19T16:58:12.363Z,1020.6
2019-02-19T16:59:12.344Z,1020.7
2019-02-19T17:00:12.476Z,1020.7
2019-02-19T17:00:38.780Z,1020.7
2019-02-19T17:01:38.795Z,1020.6
2019-02-19T17:02:38.779Z,1020.6
2019-02-19T17:03:38.806Z,1020.8
2019-02-19T17:04:38.763Z,1020.7
2019-02-19T17:05:38.833Z,1020.6
2019-02-19T17:06:38.782Z,1020.7
2019-02-19T17:07:38.815Z,1020.8
2019-02-19T17:08:38.880Z,1020.7
2019-02-19T17:09:38.808Z,1020.7
2019-02-19T17:10:38.881Z,1020.7
2019-02-19T17:11:38.844Z,1020.7
2019-02-19T17:12:38.840Z,1020.7
2019-02-19T17:13:38.889Z,1020.8
2019-02-19T17:14:38.936Z,1020.8
2019-02-19T17:15:38.933Z,1020.8
2019-02-19T17:16:38.944Z,1020.8
2019-02-19T17:17:39.014Z,1020.9
2019-02-19T17:18:38.887Z,1020.8
2019-02-19T17:19:38.861Z,1020.8
2019-02-19T17:20:38.926Z,1020.8
2019-02-19T17:21:38.882Z,1020.8
2019-02-19T17:22:38.885Z,1020.9
2019-02-19T17:23:38.903Z,1020.8
2019-02-19T17:24:38.943Z,1020.8
2019-02-19T17:25:38.903Z,1020.8
2019-02-19T17:26:38.917Z,1020.8
2019-02-19T17:27:39.050Z,1020.8
2019-02-19T17:28:39.039Z,1020.8
2019-02-19T17:29:38.940Z,1020.9
2019-02-19T17:30:38.982Z,1020.9
2019-02-19T17:31:39.035Z,1020.8
2019-02-19T17:32:39.060Z,1020.9
2019-02-19T17:33:39.004Z,1020.9
2019-02-19T17:34:39.001Z,1020.8
2019-02-19T17:35:39.021Z,1020.9
2019-02-19T17:36:39.045Z,1020.9
2019-02-19T17:37:39.102Z,1020.9
2019-02-19T17:38:39.060Z,1021
2019-02-19T17:39:39.037Z,1020.9
2019-02-19T17:40:39.064Z,1021
2019-02-19T17:41:39.037Z,1020.9
2019-02-19T17:42:39.067Z,1020.9
2019-02-19T17:43:39.056Z,1020.9
2019-02-19T17:44:39.087Z,1021
2019-02-19T17:45:39.129Z,1020.9
2019-02-19T17:46:39.069Z,1021
2019-02-19T17:47:39.060Z,1021
2019-02-19T17:48:39.066Z,1021
2019-02-19T17:49:39.099Z,1021
2019-02-19T17:50:39.166Z,1021.1
2019-02-19T17:51:39.170Z,1021.1
2019-02-19T17:52:39.149Z,1021
2019-02-19T17:53:39.167Z,1021.1
2019-02-19T17:54:39.321Z,1021.2
2019-02-19T17:55:39.258Z,1021.2
2019-02-19T17:56:39.204Z,1021.2
2019-02-19T17:57:39.498Z,1021.2
2019-02-19T17:58:39.279Z,1021.2
2019-02-19T17:59:39.248Z,1021.2
2019-02-19T18:00:39.245Z,1021.2
2019-02-19T18:01:39.291Z,1021.2
2019-02-19T18:02:39.333Z,1021.2
2019-02-19T18:03:39.367Z,1021.3
2019-02-19T18:04:39.334Z,1021.3
2019-02-19T18:05:39.286Z,1021.2
2019-02-19T18:06:39.298Z,1021.3
2019-02-19T18:07:39.304Z,1021.3
2019-02-19T18:08:39.331Z,1021.3
2019-02-19T18:09:39.382Z,1021.3
2019-02-19T18:10:39.321Z,1021.3
2019-02-19T18:11:40.403Z,1021.4
2019-02-19T18:12:39.333Z,1021.3
2019-02-19T18:13:39.408Z,1021.4
2019-02-19T18:14:39.505Z,1021.3
2019-02-19T18:15:39.334Z,1021.3
2019-02-19T18:16:39.343Z,1021.4
2019-02-19T18:17:39.577Z,1021.4
2019-02-19T18:18:39.459Z,1021.3
2019-02-19T18:19:39.396Z,1021.4
2019-02-19T18:20:47.229Z,1021.4
2019-02-19T18:21:39.426Z,1021.4
2019-02-19T18:22:39.434Z,1021.4
2019-02-19T18:23:39.426Z,1021.5
2019-02-19T18:24:39.499Z,1021.4
2019-02-19T18:25:39.456Z,1021.4
2019-02-19T18:26:39.456Z,1021.4
2019-02-19T18:27:39.495Z,1021.4
2019-02-19T18:28:39.474Z,1021.4
2019-02-19T18:29:39.509Z,1021.5
2019-02-19T18:30:39.509Z,1021.4
2019-02-19T18:31:39.483Z,1021.5
2019-02-19T18:32:39.484Z,1021.4
2019-02-19T18:33:39.533Z,1021.4
2019-02-19T18:34:39.563Z,1021.4
2019-02-19T18:35:39.547Z,1021.4
2019-02-19T18:36:39.502Z,1021.5
2019-02-19T18:37:39.487Z,1021.5
2019-02-19T18:38:39.509Z,1021.5
2019-02-19T18:39:39.521Z,1021.5
2019-02-19T18:40:39.530Z,1021.6
2019-02-19T18:41:39.519Z,1021.5
2019-02-19T18:42:39.542Z,1021.5
2019-02-19T18:43:39.585Z,1021.6
2019-02-19T18:44:39.605Z,1021.5
2019-02-19T18:45:39.598Z,1021.5
2019-02-19T18:46:39.606Z,1021.5
2019-02-19T18:47:39.606Z,1021.5
2019-02-19T18:48:39.609Z,1021.5
2019-02-19T18:49:39.622Z,1021.6
2019-02-19T18:50:39.615Z,1021.5
2019-02-19T18:51:39.644Z,1021.5
2019-02-19T18:52:39.770Z,1021.7
2019-02-19T18:53:39.634Z,1021.6
2019-02-19T18:54:39.691Z,1021.6
2019-02-19T18:55:39.642Z,1021.5
2019-02-19T18:56:39.674Z,1021.6
2019-02-19T18:57:39.702Z,1021.6
2019-02-19T18:58:39.693Z,1021.7
2019-02-19T18:59:39.675Z,1021.7
2019-02-19T19:00:39.694Z,1021.7
2019-02-19T19:01:39.681Z,1021.7
2019-02-19T19:02:39.680Z,1021.7
2019-02-19T19:03:39.705Z,1021.7
2019-02-19T19:04:39.739Z,1021.6
2019-02-19T19:05:39.759Z,1021.6
2019-02-19T19:06:39.754Z,1021.6
2019-02-19T19:07:39.796Z,1021.6
2019-02-19T19:08:39.780Z,1021.7
2019-02-19T19:09:39.824Z,1021.6
2019-02-19T19:10:39.807Z,1021.6
2019-02-19T19:11:39.784Z,1021.6
2019-02-19T19:12:39.800Z,1021.6
2019-02-19T19:13:39.802Z,1021.6
2019-02-19T19:14:39.819Z,1021.6
2019-02-19T19:15:39.849Z,1021.5
2019-02-19T19:16:39.899Z,1021.6
2019-02-19T19:17:39.905Z,1021.6
2019-02-19T19:18:39.929Z,1021.6
2019-02-19T19:19:39.880Z,1021.5
2019-02-19T19:20:39.919Z,1021.4
2019-02-19T19:21:39.872Z,1021.5
2019-02-19T19:22:39.900Z,1021.5
2019-02-19T19:23:39.894Z,1021.7
2019-02-19T19:24:39.877Z,1021.7
2019-02-19T19:25:39.897Z,1021.7
2019-02-19T19:26:39.903Z,1021.7
2019-02-19T19:27:39.959Z,1021.7
2019-02-19T19:28:39.900Z,1021.6
2019-02-19T19:29:39.928Z,1021.7
2019-02-19T19:30:39.931Z,1021.8
2019-02-19T19:31:40.015Z,1021.7
2019-02-19T19:32:39.995Z,1021.7
2019-02-19T19:33:39.985Z,1021.7
2019-02-19T19:34:40.012Z,1021.7
2019-02-19T19:35:40.067Z,1021.6
2019-02-19T19:36:40.047Z,1021.7
2019-02-19T19:37:40.030Z,1021.8
2019-02-19T19:38:40.083Z,1021.7
2019-02-19T19:39:40.086Z,1021.8
2019-02-19T19:40:40.072Z,1021.7
2019-02-19T19:41:40.213Z,1021.8
2019-02-19T19:42:40.074Z,1021.8
2019-02-19T19:43:40.093Z,1021.8
2019-02-19T19:44:40.118Z,1021.7
2019-02-19T19:45:40.118Z,1021.9
2019-02-19T19:46:40.101Z,1021.7
2019-02-19T19:47:40.126Z,1021.7
2019-02-19T19:48:40.112Z,1021.8
2019-02-19T19:49:40.117Z,1021.7
2019-02-19T19:50:40.147Z,1021.7
2019-02-19T19:51:40.142Z,1021.7
2019-02-19T19:52:40.132Z,1021.7
2019-02-19T19:53:40.119Z,1021.8
2019-02-19T19:54:40.124Z,1021.8
2019-02-19T19:55:40.127Z,1021.8
2019-02-19T19:56:40.186Z,1022
2019-02-19T19:57:40.210Z,1021.8
2019-02-19T19:58:40.197Z,1021.9
2019-02-19T19:59:40.185Z,1021.8
2019-02-19T20:00:40.191Z,1021.8
2019-02-19T20:01:40.200Z,1021.8
2019-02-19T20:02:40.213Z,1021.8
2019-02-19T20:03:40.290Z,1021.8
2019-02-19T20:04:40.232Z,1021.8
2019-02-19T20:05:40.246Z,1021.9
2019-02-19T20:06:40.254Z,1021.8
2019-02-19T20:07:40.267Z,1021.9
2019-02-19T20:08:40.314Z,1021.9
2019-02-19T20:09:40.305Z,1021.9
2019-02-19T20:10:40.304Z,1021.9
2019-02-19T20:11:40.283Z,1021.9
2019-02-19T20:12:40.332Z,1022
2019-02-19T20:13:40.312Z,1021.9
2019-02-19T20:14:40.314Z,1022
2019-02-19T20:15:40.318Z,1022
2019-02-19T20:16:40.327Z,1022
2019-02-19T20:17:40.320Z,1021.9
2019-02-19T20:18:40.322Z,1022
2019-02-19T20:19:40.356Z,1021.9
2019-02-19T20:20:40.441Z,1022
2019-02-19T20:21:40.405Z,1021.9
2019-02-19T20:22:40.353Z,1021.8
2019-02-19T20:23:40.379Z,1021.8
2019-02-19T20:24:40.359Z,1021.8
2019-02-19T20:25:40.438Z,1021.8
2019-02-19T20:26:40.411Z,1021.8
2019-02-19T20:27:40.402Z,1021.8
2019-02-19T20:28:40.419Z,1021.9
2019-02-19T20:29:40.404Z,1021.9
2019-02-19T20:30:40.548Z,1021.9
2019-02-19T20:31:40.473Z,1021.9
2019-02-19T20:32:40.431Z,1021.9
2019-02-19T20:33:40.447Z,1022
2019-02-19T20:34:40.454Z,1022
2019-02-19T20:35:40.488Z,1021.9
2019-02-19T20:36:40.518Z,1021.9
2019-02-19T20:37:53.440Z,1021.9
2019-02-19T20:38:40.495Z,1021.9
2019-02-19T20:39:40.468Z,1022
2019-02-19T20:40:40.534Z,1022
2019-02-19T20:41:40.512Z,1021.9
2019-02-19T20:42:40.797Z,1021.8
2019-02-19T20:43:40.467Z,1022
2019-02-19T20:44:40.542Z,1022
2019-02-19T20:45:40.522Z,1021.9
2019-02-19T20:46:40.504Z,1021.9
2019-02-19T20:47:40.512Z,1022
2019-02-19T20:48:40.553Z,1021.9
2019-02-19T20:49:40.570Z,1021.9
2019-02-19T20:50:40.604Z,1022
2019-02-19T20:51:40.543Z,1021.8
2019-02-19T20:52:40.533Z,1021.9
2019-02-19T20:53:40.548Z,1021.9
2019-02-19T20:54:40.537Z,1021.9
2019-02-19T20:55:40.603Z,1021.9
2019-02-19T20:56:40.551Z,1021.9
2019-02-19T20:57:40.554Z,1021.9
2019-02-19T20:58:40.572Z,1021.8
2019-02-19T20:59:40.591Z,1021.9
2019-02-19T21:00:40.633Z,1021.9
2019-02-19T21:01:40.633Z,1021.9
2019-02-19T21:02:40.586Z,1022
2019-02-19T21:03:40.601Z,1022
2019-02-19T21:04:40.618Z,1021.9
2019-02-19T21:05:40.666Z,1021.9
2019-02-19T21:06:40.597Z,1021.9
2019-02-19T21:07:40.630Z,1021.9
2019-02-19T21:08:40.714Z,1022
2019-02-19T21:09:43.591Z,1022
2019-02-19T21:10:40.628Z,1022
2019-02-19T21:11:40.614Z,1021.9
2019-02-19T21:12:40.640Z,1022
2019-02-19T21:13:40.665Z,1022
2019-02-19T21:14:45.663Z,1022
2019-02-19T21:15:40.634Z,1021.9
2019-02-19T21:16:40.645Z,1022
2019-02-19T21:17:40.664Z,1022
2019-02-19T21:18:40.739Z,1022
2019-02-19T21:19:40.680Z,1022
2019-02-19T21:20:40.678Z,1022
2019-02-19T21:21:44.864Z,1022
2019-02-19T21:22:40.806Z,1022
2019-02-19T21:23:40.834Z,1022.1
2019-02-19T21:24:40.707Z,1022
2019-02-19T21:25:40.695Z,1022.1
2019-02-19T21:26:40.726Z,1022.1
2019-02-19T21:27:40.721Z,1021.9
2019-02-19T21:28:40.738Z,1022
2019-02-19T21:29:40.771Z,1021.9
2019-02-19T21:30:40.743Z,1022
2019-02-19T21:31:40.716Z,1021.9
2019-02-19T21:32:40.729Z,1022
2019-02-19T21:33:40.758Z,1022
2019-02-19T21:34:40.779Z,1022
2019-02-19T21:35:40.828Z,1022.1
2019-02-19T21:36:40.850Z,1022.1
2019-02-19T21:37:40.837Z,1022
2019-02-19T21:38:41.917Z,1022
2019-02-19T21:39:40.983Z,1022.1
2019-02-19T21:40:40.880Z,1022
2019-02-19T21:41:40.984Z,1022
2019-02-19T21:42:40.884Z,1021.9
2019-02-19T21:43:40.917Z,1022
2019-02-19T21:44:40.958Z,1021.9
2019-02-19T21:45:40.955Z,1022
2019-02-19T21:46:41.290Z,1022
2019-02-19T21:47:40.904Z,1022
2019-02-19T21:48:47.692Z,1022.1
2019-02-19T21:49:40.962Z,1022.1
2019-02-19T21:50:41.160Z,1022.1
2019-02-19T21:51:40.966Z,1022.1
2019-02-19T21:52:40.941Z,1022
2019-02-19T21:53:41.000Z,1022
2019-02-19T21:54:41.138Z,1022
2019-02-19T21:55:40.978Z,1022
2019-02-19T21:56:41.763Z,1021.9
2019-02-19T21:57:40.981Z,1022
2019-02-19T21:58:41.020Z,1022
2019-02-19T21:59:41.095Z,1022.1
2019-02-19T22:00:40.987Z,1022
2019-02-19T22:01:41.019Z,1022
2019-02-19T22:02:41.095Z,1022
2019-02-19T22:03:41.058Z,1021.9
2019-02-19T22:04:41.114Z,1022
2019-02-19T22:05:41.091Z,1021.9
2019-02-19T22:06:41.078Z,1022
2019-02-19T22:07:41.140Z,1022
2019-02-19T22:08:41.061Z,1022
2019-02-19T22:09:41.093Z,1021.9
2019-02-19T22:10:41.127Z,1021.9
2019-02-19T22:11:41.151Z,1021.9
2019-02-19T22:12:41.137Z,1022
2019-02-19T22:13:41.128Z,1021.9
2019-02-19T22:14:41.136Z,1022
2019-02-19T22:15:41.144Z,1021.9
2019-02-19T22:16:41.140Z,1022
2019-02-19T22:17:41.219Z,1022
2019-02-19T22:18:41.166Z,1022
2019-02-19T22:19:41.153Z,1022
2019-02-19T22:20:41.125Z,1022
2019-02-19T22:21:41.169Z,1022.1
2019-02-19T22:22:41.182Z,1022
2019-02-19T22:23:41.209Z,1022.1
2019-02-19T22:24:41.195Z,1022
2019-02-19T22:25:41.211Z,1022.1
2019-02-19T22:26:41.214Z,1022.1
2019-02-19T22:27:41.290Z,1022
2019-02-19T22:28:41.310Z,1022
2019-02-19T22:29:41.281Z,1021.9
2019-02-19T22:30:41.242Z,1022
2019-02-19T22:31:41.247Z,1022
2019-02-19T22:32:41.272Z,1022
2019-02-19T22:33:41.283Z,1022
2019-02-19T22:34:41.314Z,1022
2019-02-19T22:35:41.333Z,1022.1
2019-02-19T22:36:41.273Z,1022.1
2019-02-19T22:37:41.299Z,1022.1
2019-02-19T22:38:41.291Z,1022.1
2019-02-19T22:39:41.314Z,1022.1
2019-02-19T22:40:41.324Z,1022.2
2019-02-19T22:41:41.341Z,1022.2
2019-02-19T22:42:41.326Z,1022.2
2019-02-19T22:43:41.357Z,1022.2
2019-02-19T22:44:41.313Z,1022.2
2019-02-19T22:45:41.376Z,1022.3
2019-02-19T22:46:41.418Z,1022.2
2019-02-19T22:47:41.355Z,1022.3
2019-02-19T22:48:41.383Z,1022.2
2019-02-19T22:49:41.405Z,1022.3
2019-02-19T22:50:41.393Z,1022.3
2019-02-19T22:51:41.456Z,1022.3
2019-02-19T22:52:41.435Z,1022.2
2019-02-19T22:53:41.467Z,1022.2
2019-02-19T22:54:41.731Z,1022.1
2019-02-19T22:55:41.478Z,1022.3
2019-02-19T22:56:41.481Z,1022.3
2019-02-19T22:57:41.484Z,1022.3
2019-02-19T22:58:41.474Z,1022.3
2019-02-19T22:59:41.486Z,1022.3
2019-02-19T23:00:41.491Z,1022.3
2019-02-19T23:01:41.493Z,1022.3
2019-02-19T23:02:41.520Z,1022.2
2019-02-19T23:03:41.506Z,1022.3
2019-02-19T23:04:41.509Z,1022.3
2019-02-19T23:05:41.544Z,1022.4
2019-02-19T23:06:41.536Z,1022.3
2019-02-19T23:07:41.613Z,1022.4
2019-02-19T23:08:41.528Z,1022.3
2019-02-19T23:09:41.617Z,1022.3
2019-02-19T23:10:41.525Z,1022.3
2019-02-19T23:11:41.551Z,1022.4
2019-02-19T23:12:41.688Z,1022.4
2019-02-19T23:13:41.576Z,1022.4
2019-02-19T23:14:41.659Z,1022.4
2019-02-19T23:15:41.626Z,1022.5
2019-02-19T23:16:41.698Z,1022.5
2019-02-19T23:17:41.692Z,1022.4
2019-02-19T23:18:41.672Z,1022.5
2019-02-19T23:19:42.945Z,1022.4
2019-02-19T23:20:41.687Z,1022.5
2019-02-19T23:21:41.733Z,1022.5
2019-02-19T23:22:41.744Z,1022.5
2019-02-19T23:23:41.702Z,1022.4
2019-02-19T23:24:41.717Z,1022.4
2019-02-19T23:25:41.712Z,1022.5
2019-02-19T23:26:41.723Z,1022.5
2019-02-19T23:27:41.792Z,1022.5
2019-02-19T23:28:41.747Z,1022.5
2019-02-19T23:29:41.713Z,1022.6
2019-02-19T23:30:41.718Z,1022.5
2019-02-19T23:31:41.771Z,1022.6
2019-02-19T23:32:41.796Z,1022.5
2019-02-19T23:33:41.748Z,1022.5
2019-02-19T23:34:41.749Z,1022.6
2019-02-19T23:35:41.973Z,1022.5
2019-02-19T23:36:41.810Z,1022.5
2019-02-19T23:37:41.873Z,1022.5
2019-02-19T23:38:41.828Z,1022.6
2019-02-19T23:39:43.706Z,1022.5
2019-02-19T23:40:41.836Z,1022.5
2019-02-19T23:41:41.854Z,1022.5
2019-02-19T23:42:41.891Z,1022.5
2019-02-19T23:43:41.905Z,1022.5
2019-02-19T23:44:41.953Z,1022.5
2019-02-19T23:45:41.934Z,1022.6
2019-02-19T23:46:43.881Z,1022.5
2019-02-19T23:47:41.930Z,1022.5
2019-02-19T23:48:41.991Z,1022.5
2019-02-19T23:49:41.934Z,1022.5
2019-02-19T23:50:41.935Z,1022.6
2019-02-19T23:51:41.925Z,1022.5
2019-02-19T23:52:41.952Z,1022.5
2019-02-19T23:53:41.954Z,1022.5
2019-02-19T23:54:41.963Z,1022.5
2019-02-19T23:55:41.946Z,1022.5
2019-02-19T23:56:41.995Z,1022.5
2019-02-19T23:57:41.965Z,1022.5
2019-02-19T23:58:41.997Z,1022.5
2019-02-19T23:59:41.971Z,1022.5
